createdAt,value
2018-05-01T00:00:12.285Z,0
2018-05-01T00:01:11.480Z,0
2018-05-01T00:02:12.003Z,0
2018-05-01T00:03:12.029Z,0
2018-05-01T00:04:12.057Z,0
2018-05-01T00:05:12.073Z,0
2018-05-01T00:06:11.838Z,0
2018-05-01T00:07:12.368Z,0
2018-05-01T00:08:11.876Z,0
2018-05-01T00:09:12.414Z,0
2018-05-01T00:10:13.718Z,0
2018-05-01T00:11:11.942Z,0
2018-05-01T00:12:12.237Z,0
2018-05-01T00:13:12.256Z,0
2018-05-01T00:14:12.521Z,0
2018-05-01T00:15:12.540Z,0
2018-05-01T00:16:12.055Z,0
2018-05-01T00:17:12.589Z,0
2018-05-01T00:18:12.610Z,0
2018-05-01T00:19:12.377Z,0
2018-05-01T00:20:12.400Z,0
2018-05-01T00:21:12.429Z,0
2018-05-01T00:22:12.185Z,0
2018-05-01T00:23:12.713Z,0
2018-05-01T00:24:12.229Z,0
2018-05-01T00:25:12.887Z,0
2018-05-01T00:26:12.774Z,0
2018-05-01T00:27:12.305Z,0
2018-05-01T00:28:12.312Z,0
2018-05-01T00:29:12.092Z,0
2018-05-01T00:30:12.355Z,0
2018-05-01T00:31:12.125Z,0
2018-05-01T00:32:12.661Z,0
2018-05-01T00:33:12.678Z,0
2018-05-01T00:34:12.447Z,0
2018-05-01T00:35:12.734Z,0
2018-05-01T00:36:12.492Z,0
2018-05-01T00:37:12.513Z,0
2018-05-01T00:38:13.036Z,0
2018-05-01T00:39:12.545Z,0
2018-05-01T00:40:12.879Z,0
2018-05-01T00:41:13.100Z,0
2018-05-01T00:42:13.118Z,0
2018-05-01T00:43:12.889Z,0
2018-05-01T00:44:12.652Z,0
2018-05-01T00:45:12.678Z,0
2018-05-01T00:46:12.439Z,0
2018-05-01T00:47:12.713Z,0
2018-05-01T00:48:13.248Z,0
2018-05-01T00:49:12.795Z,0
2018-05-01T00:50:12.791Z,0
2018-05-01T00:51:12.545Z,0
2018-05-01T00:52:12.566Z,0
2018-05-01T00:53:13.349Z,0
2018-05-01T00:54:12.873Z,0
2018-05-01T00:55:13.387Z,0
2018-05-01T00:56:13.196Z,0
2018-05-01T00:57:12.914Z,0
2018-05-01T00:58:13.444Z,0
2018-05-01T00:59:13.480Z,0
2018-05-01T01:00:13.252Z,0
2018-05-01T01:01:13.036Z,0
2018-05-01T01:02:13.289Z,0
2018-05-01T01:03:13.056Z,0
2018-05-01T01:04:13.333Z,0
2018-05-01T01:05:13.344Z,0
2018-05-01T01:06:13.365Z,0
2018-05-01T01:07:13.681Z,0
2018-05-01T01:08:13.419Z,0
2018-05-01T01:09:13.210Z,0
2018-05-01T01:10:13.530Z,0
2018-05-01T01:11:13.739Z,0
2018-05-01T01:12:13.800Z,0
2018-05-01T01:13:13.522Z,0
2018-05-01T01:14:13.534Z,0
2018-05-01T01:15:13.563Z,0
2018-05-01T01:16:13.577Z,0
2018-05-01T01:17:13.606Z,0
2018-05-01T01:18:13.872Z,0
2018-05-01T01:19:13.647Z,0
2018-05-01T01:20:13.666Z,0
2018-05-01T01:21:13.942Z,0
2018-05-01T01:22:13.785Z,0
2018-05-01T01:23:13.482Z,0
2018-05-01T01:24:13.507Z,0
2018-05-01T01:25:13.788Z,0
2018-05-01T01:26:13.290Z,0
2018-05-01T01:27:14.114Z,0
2018-05-01T01:28:13.854Z,0
2018-05-01T01:29:13.856Z,0
2018-05-01T01:30:14.152Z,0
2018-05-01T01:31:14.166Z,0
2018-05-01T01:32:13.155Z,0
2018-05-01T01:33:13.963Z,0
2018-05-01T01:34:14.203Z,0
2018-05-01T01:35:13.719Z,0
2018-05-01T01:36:14.248Z,0
2018-05-01T01:37:14.011Z,0
2018-05-01T01:38:14.286Z,0
2018-05-01T01:39:13.819Z,0
2018-05-01T01:40:13.823Z,0
2018-05-01T01:41:14.366Z,0
2018-05-01T01:42:14.431Z,0
2018-05-01T01:43:14.405Z,0
2018-05-01T01:44:14.415Z,0
2018-05-01T01:45:14.458Z,0
2018-05-01T01:46:14.459Z,0
2018-05-01T01:47:14.476Z,0
2018-05-01T01:48:14.495Z,0
2018-05-01T01:49:14.521Z,0
2018-05-01T01:50:14.280Z,0
2018-05-01T01:51:14.545Z,0
2018-05-01T01:52:14.308Z,0
2018-05-01T01:53:14.083Z,0
2018-05-01T01:54:14.342Z,0
2018-05-01T01:55:14.369Z,0
2018-05-01T01:56:14.408Z,0
2018-05-01T01:57:14.466Z,0
2018-05-01T01:58:14.433Z,0
2018-05-01T01:59:14.472Z,0
2018-05-01T02:00:14.499Z,0
2018-05-01T02:01:14.518Z,0
2018-05-01T02:02:14.287Z,0
2018-05-01T02:03:14.873Z,0
2018-05-01T02:04:14.579Z,0
2018-05-01T02:05:14.348Z,0
2018-05-01T02:06:14.876Z,0
2018-05-01T02:07:14.653Z,0
2018-05-01T02:08:14.682Z,0
2018-05-01T02:09:14.671Z,0
2018-05-01T02:10:14.957Z,0
2018-05-01T02:11:14.462Z,0
2018-05-01T02:12:14.539Z,0
2018-05-01T02:13:15.022Z,0
2018-05-01T02:14:14.793Z,0
2018-05-01T02:15:14.888Z,0
2018-05-01T02:16:14.573Z,0
2018-05-01T02:17:15.114Z,0
2018-05-01T02:18:14.861Z,0
2018-05-01T02:19:15.126Z,0
2018-05-01T02:20:14.658Z,0
2018-05-01T02:21:15.186Z,0
2018-05-01T02:22:14.951Z,0
2018-05-01T02:23:14.983Z,0
2018-05-01T02:24:15.321Z,0
2018-05-01T02:25:15.269Z,0
2018-05-01T02:26:15.035Z,0
2018-05-01T02:27:15.128Z,0
2018-05-01T02:28:15.339Z,0
2018-05-01T02:29:15.367Z,0
2018-05-01T02:30:15.376Z,0
2018-05-01T02:31:14.886Z,0
2018-05-01T02:32:15.172Z,0
2018-05-01T02:33:15.179Z,0
2018-05-01T02:34:15.461Z,0
2018-05-01T02:35:15.217Z,0
2018-05-01T02:36:15.240Z,0
2018-05-01T02:37:15.516Z,0
2018-05-01T02:38:15.536Z,0
2018-05-01T02:39:15.309Z,0
2018-05-01T02:40:15.592Z,0
2018-05-01T02:41:15.657Z,0
2018-05-01T02:42:15.427Z,0
2018-05-01T02:43:15.641Z,0
2018-05-01T02:44:15.404Z,0
2018-05-01T02:45:15.692Z,0
2018-05-01T02:46:15.714Z,0
2018-05-01T02:47:15.218Z,0
2018-05-01T02:48:15.747Z,0
2018-05-01T02:49:15.256Z,0
2018-05-01T02:50:15.781Z,0
2018-05-01T02:51:15.812Z,0
2018-05-01T02:52:15.837Z,0
2018-05-01T02:53:15.847Z,0
2018-05-01T02:54:15.620Z,0
2018-05-01T02:55:15.612Z,0
2018-05-01T02:56:15.891Z,0
2018-05-01T02:57:15.709Z,0
2018-05-01T02:58:15.938Z,0
2018-05-01T02:59:15.965Z,0
2018-05-01T03:00:15.724Z,0
2018-05-01T03:01:16.014Z,0
2018-05-01T03:02:15.766Z,0
2018-05-01T03:03:15.794Z,0
2018-05-01T03:04:15.788Z,0
2018-05-01T03:05:16.076Z,0
2018-05-01T03:06:16.109Z,0
2018-05-01T03:07:16.129Z,0
2018-05-01T03:08:15.875Z,0
2018-05-01T03:09:15.659Z,0
2018-05-01T03:10:15.925Z,0
2018-05-01T03:11:16.204Z,0
2018-05-01T03:12:16.011Z,0
2018-05-01T03:13:16.244Z,0
2018-05-01T03:14:16.009Z,0
2018-05-01T03:15:16.289Z,0
2018-05-01T03:16:15.797Z,0
2018-05-01T03:17:16.324Z,0
2018-05-01T03:18:15.838Z,0
2018-05-01T03:19:16.108Z,0
2018-05-01T03:20:16.154Z,0
2018-05-01T03:21:16.431Z,0
2018-05-01T03:22:16.525Z,0
2018-05-01T03:23:16.205Z,0
2018-05-01T03:24:16.501Z,0
2018-05-01T03:25:16.538Z,0
2018-05-01T03:26:16.528Z,0
2018-05-01T03:27:16.091Z,0
2018-05-01T03:28:16.310Z,0
2018-05-01T03:29:16.332Z,0
2018-05-01T03:30:16.110Z,0
2018-05-01T03:31:16.389Z,0
2018-05-01T03:32:16.664Z,0
2018-05-01T03:33:16.428Z,0
2018-05-01T03:34:16.707Z,0
2018-05-01T03:35:16.489Z,0
2018-05-01T03:36:16.495Z,0
2018-05-01T03:37:16.787Z,0
2018-05-01T03:38:16.787Z,0
2018-05-01T03:39:16.930Z,0
2018-05-01T03:40:16.315Z,0
2018-05-01T03:41:16.578Z,0
2018-05-01T03:42:16.663Z,0
2018-05-01T03:43:16.642Z,0
2018-05-01T03:44:16.914Z,0
2018-05-01T03:45:16.940Z,0
2018-05-01T03:46:16.954Z,0
2018-05-01T03:47:16.724Z,0
2018-05-01T03:48:17.003Z,0
2018-05-01T03:49:16.523Z,0
2018-05-01T03:50:17.032Z,0
2018-05-01T03:51:17.162Z,0
2018-05-01T03:52:17.079Z,0
2018-05-01T03:53:17.098Z,0
2018-05-01T03:54:17.120Z,0
2018-05-01T03:55:17.143Z,0
2018-05-01T03:56:17.222Z,0
2018-05-01T03:57:16.932Z,0
2018-05-01T03:58:16.953Z,0
2018-05-01T03:59:17.020Z,0
2018-05-01T04:00:16.983Z,0
2018-05-01T04:01:17.252Z,0
2018-05-01T04:02:17.570Z,5
2018-05-01T04:03:17.301Z,5
2018-05-01T04:04:17.325Z,5
2018-05-01T04:05:16.837Z,5
2018-05-01T04:06:17.105Z,5
2018-05-01T04:07:17.390Z,5
2018-05-01T04:08:17.420Z,5
2018-05-01T04:09:16.940Z,5
2018-05-01T04:10:16.962Z,5
2018-05-01T04:11:17.499Z,5
2018-05-01T04:12:17.273Z,5
2018-05-01T04:13:17.529Z,5
2018-05-01T04:14:17.349Z,10
2018-05-01T04:15:17.073Z,10
2018-05-01T04:16:17.594Z,10
2018-05-01T04:17:17.597Z,10
2018-05-01T04:18:17.872Z,10
2018-05-01T04:19:17.640Z,10
2018-05-01T04:20:17.423Z,15
2018-05-01T04:21:17.430Z,15
2018-05-01T04:22:17.461Z,15
2018-05-01T04:23:17.581Z,15
2018-05-01T04:24:17.747Z,15
2018-05-01T04:25:17.588Z,15
2018-05-01T04:26:17.556Z,15
2018-05-01T04:27:17.828Z,15
2018-05-01T04:28:17.850Z,15
2018-05-01T04:29:17.698Z,15
2018-05-01T04:30:17.918Z,15
2018-05-01T04:31:17.921Z,20
2018-05-01T04:32:17.939Z,20
2018-05-01T04:33:17.964Z,20
2018-05-01T04:34:17.477Z,20
2018-05-01T04:35:17.494Z,20
2018-05-01T04:36:17.768Z,20
2018-05-01T04:37:17.829Z,20
2018-05-01T04:38:17.806Z,20
2018-05-01T04:39:18.091Z,20
2018-05-01T04:40:17.859Z,20
2018-05-01T04:41:17.877Z,20
2018-05-01T04:42:17.902Z,20
2018-05-01T04:43:18.178Z,20
2018-05-01T04:44:18.231Z,25
2018-05-01T04:45:17.945Z,25
2018-05-01T04:46:17.976Z,25
2018-05-01T04:47:17.994Z,25
2018-05-01T04:48:18.282Z,25
2018-05-01T04:49:18.281Z,25
2018-05-01T04:50:17.803Z,25
2018-05-01T04:51:18.161Z,25
2018-05-01T04:52:17.845Z,25
2018-05-01T04:53:18.376Z,25
2018-05-01T04:54:18.147Z,25
2018-05-01T04:55:17.919Z,25
2018-05-01T04:56:18.183Z,25
2018-05-01T04:57:18.220Z,25
2018-05-01T04:58:18.483Z,25
2018-05-01T04:59:18.564Z,25
2018-05-01T05:00:18.534Z,25
2018-05-01T05:01:18.571Z,25
2018-05-01T05:02:18.326Z,25
2018-05-01T05:03:18.585Z,25
2018-05-01T05:04:18.399Z,25
2018-05-01T05:05:18.626Z,25
2018-05-01T05:06:18.679Z,30
2018-05-01T05:07:18.423Z,30
2018-05-01T05:08:18.740Z,30
2018-05-01T05:09:18.493Z,30
2018-05-01T05:10:18.750Z,30
2018-05-01T05:11:18.794Z,35
2018-05-01T05:12:18.536Z,35
2018-05-01T05:13:18.301Z,35
2018-05-01T05:14:20.029Z,35
2018-05-01T05:15:18.850Z,35
2018-05-01T05:16:18.370Z,35
2018-05-01T05:17:18.897Z,35
2018-05-01T05:18:18.936Z,35
2018-05-01T05:19:19.005Z,35
2018-05-01T05:20:18.784Z,35
2018-05-01T05:21:18.975Z,40
2018-05-01T05:22:18.765Z,40
2018-05-01T05:23:18.784Z,40
2018-05-01T05:24:19.047Z,45
2018-05-01T05:25:19.069Z,45
2018-05-01T05:26:19.091Z,45
2018-05-01T05:27:19.107Z,45
2018-05-01T05:28:19.131Z,50
2018-05-01T05:29:18.901Z,50
2018-05-01T05:30:18.913Z,50
2018-05-01T05:31:19.192Z,50
2018-05-01T05:32:18.953Z,50
2018-05-01T05:33:19.225Z,55
2018-05-01T05:34:19.299Z,55
2018-05-01T05:35:19.019Z,55
2018-05-01T05:36:19.157Z,60
2018-05-01T05:37:19.067Z,60
2018-05-01T05:38:19.088Z,60
2018-05-01T05:39:19.360Z,65
2018-05-01T05:40:19.389Z,70
2018-05-01T05:41:19.408Z,70
2018-05-01T05:42:18.922Z,70
2018-05-01T05:43:19.443Z,75
2018-05-01T05:44:19.213Z,75
2018-05-01T05:45:19.267Z,80
2018-05-01T05:46:19.257Z,80
2018-05-01T05:47:19.531Z,80
2018-05-01T05:48:19.288Z,80
2018-05-01T05:49:19.345Z,85
2018-05-01T05:50:19.566Z,85
2018-05-01T05:51:19.085Z,85
2018-05-01T05:52:19.364Z,85
2018-05-01T05:53:19.378Z,95
2018-05-01T05:54:19.691Z,95
2018-05-01T05:55:19.419Z,95
2018-05-01T05:56:19.694Z,95
2018-05-01T05:57:19.472Z,100
2018-05-01T05:58:19.753Z,100
2018-05-01T05:59:19.520Z,100
2018-05-01T06:00:19.551Z,105
2018-05-01T06:01:19.618Z,105
2018-05-01T06:02:19.855Z,105
2018-05-01T06:03:19.105Z,100
2018-05-01T06:04:19.681Z,100
2018-05-01T06:05:19.900Z,100
2018-05-01T06:06:19.680Z,70
2018-05-01T06:07:19.431Z,105
2018-05-01T06:08:19.966Z,105
2018-05-01T06:09:20.002Z,110
2018-05-01T06:10:19.499Z,115
2018-05-01T06:11:20.038Z,120
2018-05-01T06:12:20.079Z,125
2018-05-01T06:13:19.821Z,125
2018-05-01T06:14:19.854Z,130
2018-05-01T06:15:19.865Z,135
2018-05-01T06:16:20.147Z,135
2018-05-01T06:17:19.922Z,135
2018-05-01T06:18:19.672Z,135
2018-05-01T06:19:20.245Z,130
2018-05-01T06:20:19.977Z,135
2018-05-01T06:21:19.989Z,135
2018-05-01T06:22:19.764Z,135
2018-05-01T06:23:19.855Z,140
2018-05-01T06:24:20.066Z,140
2018-05-01T06:25:20.076Z,145
2018-05-01T06:26:20.355Z,145
2018-05-01T06:27:20.374Z,145
2018-05-01T06:28:20.387Z,140
2018-05-01T06:29:20.431Z,140
2018-05-01T06:30:20.438Z,140
2018-05-01T06:31:21.064Z,145
2018-05-01T06:32:19.971Z,150
2018-05-01T06:33:20.513Z,160
2018-05-01T06:34:20.299Z,165
2018-05-01T06:35:20.269Z,170
2018-05-01T06:36:20.569Z,175
2018-05-01T06:37:20.421Z,160
2018-05-01T06:38:20.607Z,170
2018-05-01T06:39:20.626Z,175
2018-05-01T06:40:20.394Z,175
2018-05-01T06:41:20.685Z,160
2018-05-01T06:42:20.440Z,160
2018-05-01T06:43:20.458Z,175
2018-05-01T06:44:20.247Z,170
2018-05-01T06:45:20.751Z,165
2018-05-01T06:46:20.520Z,160
2018-05-01T06:47:20.791Z,145
2018-05-01T06:48:20.559Z,140
2018-05-01T06:49:20.885Z,150
2018-05-01T06:50:20.868Z,150
2018-05-01T06:51:20.883Z,130
2018-05-01T06:52:20.777Z,135
2018-05-01T06:53:20.920Z,170
2018-05-01T06:54:20.707Z,195
2018-05-01T06:55:20.733Z,205
2018-05-01T06:56:20.480Z,205
2018-05-01T06:57:21.014Z,185
2018-05-01T06:58:21.036Z,175
2018-05-01T06:59:20.537Z,185
2018-05-01T07:00:21.070Z,195
2018-05-01T07:01:21.093Z,200
2018-05-01T07:02:21.111Z,180
2018-05-01T07:03:21.147Z,140
2018-05-01T07:04:21.272Z,175
2018-05-01T07:05:20.932Z,210
2018-05-01T07:06:21.196Z,225
2018-05-01T07:07:21.225Z,205
2018-05-01T07:08:21.253Z,220
2018-05-01T07:09:21.227Z,250
2018-05-01T07:10:21.657Z,265
2018-05-01T07:11:21.270Z,265
2018-05-01T07:12:20.788Z,255
2018-05-01T07:13:21.109Z,230
2018-05-01T07:14:21.370Z,200
2018-05-01T07:15:21.398Z,170
2018-05-01T07:16:21.427Z,190
2018-05-01T07:17:21.185Z,235
2018-05-01T07:18:21.488Z,280
2018-05-01T07:19:21.505Z,300
2018-05-01T07:20:21.475Z,320
2018-05-01T07:21:21.982Z,310
2018-05-01T07:22:21.268Z,300
2018-05-01T07:23:21.067Z,280
2018-05-01T07:24:20.833Z,275
2018-05-01T07:25:21.615Z,310
2018-05-01T07:26:21.391Z,345
2018-05-01T07:27:21.419Z,345
2018-05-01T07:28:21.788Z,350
2018-05-01T07:29:20.683Z,340
2018-05-01T07:30:21.468Z,345
2018-05-01T07:31:21.489Z,350
2018-05-01T07:32:21.768Z,385
2018-05-01T07:33:21.535Z,340
2018-05-01T07:34:21.605Z,355
2018-05-01T07:35:21.579Z,340
2018-05-01T07:36:21.644Z,330
2018-05-01T07:37:21.887Z,330
2018-05-01T07:38:21.911Z,335
2018-05-01T07:39:21.673Z,350
2018-05-01T07:40:21.691Z,350
2018-05-01T07:41:21.466Z,340
2018-05-01T07:42:21.997Z,350
2018-05-01T07:43:21.784Z,330
2018-05-01T07:44:22.043Z,310
2018-05-01T07:45:22.061Z,305
2018-05-01T07:46:21.931Z,315
2018-05-01T07:47:22.099Z,345
2018-05-01T07:48:21.874Z,385
2018-05-01T07:49:22.198Z,430
2018-05-01T07:50:21.680Z,370
2018-05-01T07:51:22.284Z,400
2018-05-01T07:52:21.969Z,380
2018-05-01T07:53:22.001Z,430
2018-05-01T07:54:22.268Z,375
2018-05-01T07:55:22.294Z,355
2018-05-01T07:56:21.554Z,360
2018-05-01T07:57:22.080Z,415
2018-05-01T07:58:22.110Z,350
2018-05-01T07:59:21.891Z,370
2018-05-01T08:00:22.224Z,380
2018-05-01T08:01:22.179Z,420
2018-05-01T08:02:22.218Z,445
2018-05-01T08:03:22.217Z,500
2018-05-01T08:04:22.567Z,490
2018-05-01T08:05:22.525Z,455
2018-05-01T08:06:22.271Z,470
2018-05-01T08:07:22.553Z,480
2018-05-01T08:08:22.585Z,520
2018-05-01T08:09:22.356Z,485
2018-05-01T08:10:22.389Z,440
2018-05-01T08:11:22.194Z,405
2018-05-01T08:12:22.433Z,400
2018-05-01T08:13:22.458Z,410
2018-05-01T08:14:22.476Z,380
2018-05-01T08:15:22.511Z,310
2018-05-01T08:16:22.274Z,255
2018-05-01T08:17:22.571Z,275
2018-05-01T08:18:22.319Z,325
2018-05-01T08:19:24.113Z,380
2018-05-01T08:20:22.882Z,420
2018-05-01T08:21:22.901Z,405
2018-05-01T08:22:22.684Z,440
2018-05-01T08:23:22.693Z,440
2018-05-01T08:24:23.074Z,440
2018-05-01T08:25:22.469Z,440
2018-05-01T08:26:22.774Z,390
2018-05-01T08:27:22.770Z,390
2018-05-01T08:28:22.560Z,365
2018-05-01T08:29:23.175Z,335
2018-05-01T08:30:22.850Z,300
2018-05-01T08:31:23.124Z,315
2018-05-01T08:32:23.152Z,365
2018-05-01T08:33:22.939Z,390
2018-05-01T08:34:23.249Z,390
2018-05-01T08:35:23.218Z,405
2018-05-01T08:36:23.242Z,340
2018-05-01T08:37:23.002Z,380
2018-05-01T08:38:23.295Z,445
2018-05-01T08:39:23.056Z,445
2018-05-01T08:40:23.340Z,470
2018-05-01T08:41:23.109Z,445
2018-05-01T08:42:23.140Z,445
2018-05-01T08:43:22.613Z,540
2018-05-01T08:44:23.426Z,595
2018-05-01T08:45:23.753Z,590
2018-05-01T08:46:23.224Z,550
2018-05-01T08:47:23.499Z,545
2018-05-01T08:48:23.289Z,515
2018-05-01T08:49:23.598Z,505
2018-05-01T08:50:23.571Z,500
2018-05-01T08:51:23.636Z,475
2018-05-01T08:52:23.370Z,450
2018-05-01T08:53:23.641Z,405
2018-05-01T08:54:23.674Z,385
2018-05-01T08:55:23.696Z,390
2018-05-01T08:56:23.716Z,395
2018-05-01T08:57:23.629Z,410
2018-05-01T08:58:23.525Z,425
2018-05-01T08:59:23.800Z,430
2018-05-01T09:00:23.314Z,420
2018-05-01T09:01:23.586Z,400
2018-05-01T09:02:23.865Z,375
2018-05-01T09:03:23.898Z,345
2018-05-01T09:04:23.225Z,335
2018-05-01T09:05:23.990Z,330
2018-05-01T09:06:23.969Z,335
2018-05-01T09:07:23.989Z,330
2018-05-01T09:08:23.755Z,335
2018-05-01T09:09:23.785Z,330
2018-05-01T09:10:23.606Z,330
2018-05-01T09:11:24.086Z,335
2018-05-01T09:12:23.605Z,350
2018-05-01T09:13:24.144Z,345
2018-05-01T09:14:23.914Z,300
2018-05-01T09:15:23.927Z,285
2018-05-01T09:16:23.954Z,295
2018-05-01T09:17:23.989Z,300
2018-05-01T09:18:25.204Z,355
2018-05-01T09:19:24.285Z,365
2018-05-01T09:20:23.799Z,385
2018-05-01T09:21:24.321Z,390
2018-05-01T09:22:24.356Z,365
2018-05-01T09:23:24.364Z,385
2018-05-01T09:24:24.143Z,405
2018-05-01T09:25:24.221Z,405
2018-05-01T09:26:24.183Z,405
2018-05-01T09:27:24.223Z,400
2018-05-01T09:28:23.975Z,360
2018-05-01T09:29:24.509Z,275
2018-05-01T09:30:24.534Z,265
2018-05-01T09:31:24.559Z,300
2018-05-01T09:32:24.327Z,335
2018-05-01T09:33:24.361Z,310
2018-05-01T09:34:24.637Z,300
2018-05-01T09:35:24.722Z,330
2018-05-01T09:36:24.430Z,325
2018-05-01T09:37:24.697Z,310
2018-05-01T09:38:24.454Z,285
2018-05-01T09:39:24.475Z,270
2018-05-01T09:40:24.796Z,280
2018-05-01T09:41:24.538Z,290
2018-05-01T09:42:24.543Z,295
2018-05-01T09:43:24.808Z,325
2018-05-01T09:44:24.589Z,340
2018-05-01T09:45:24.921Z,310
2018-05-01T09:46:24.645Z,275
2018-05-01T09:47:25.059Z,255
2018-05-01T09:48:24.961Z,235
2018-05-01T09:49:24.473Z,240
2018-05-01T09:50:25.004Z,275
2018-05-01T09:51:24.775Z,300
2018-05-01T09:52:25.045Z,290
2018-05-01T09:53:25.435Z,300
2018-05-01T09:54:24.851Z,295
2018-05-01T09:55:24.405Z,300
2018-05-01T09:56:24.876Z,340
2018-05-01T09:57:25.145Z,360
2018-05-01T09:58:24.925Z,350
2018-05-01T09:59:25.193Z,355
2018-05-01T10:00:25.216Z,350
2018-05-01T10:01:25.246Z,360
2018-05-01T10:02:25.110Z,370
2018-05-01T10:03:25.309Z,360
2018-05-01T10:04:25.076Z,335
2018-05-01T10:05:24.750Z,325
2018-05-01T10:06:25.385Z,315
2018-05-01T10:07:25.402Z,350
2018-05-01T10:08:25.441Z,330
2018-05-01T10:09:25.454Z,280
2018-05-01T10:10:25.472Z,280
2018-05-01T10:11:25.251Z,315
2018-05-01T10:12:25.333Z,330
2018-05-01T10:13:25.574Z,345
2018-05-01T10:14:25.313Z,310
2018-05-01T10:15:25.083Z,300
2018-05-01T10:16:25.113Z,365
2018-05-01T10:17:25.136Z,365
2018-05-01T10:18:25.418Z,310
2018-05-01T10:19:25.699Z,275
2018-05-01T10:20:25.775Z,310
2018-05-01T10:21:25.477Z,325
2018-05-01T10:22:25.496Z,330
2018-05-01T10:23:25.522Z,320
2018-05-01T10:24:25.290Z,320
2018-05-01T10:25:25.308Z,315
2018-05-01T10:26:25.068Z,320
2018-05-01T10:27:25.861Z,320
2018-05-01T10:28:25.888Z,320
2018-05-01T10:29:25.672Z,320
2018-05-01T10:30:25.671Z,335
2018-05-01T10:31:25.951Z,355
2018-05-01T10:32:25.754Z,380
2018-05-01T10:33:25.503Z,400
2018-05-01T10:34:25.801Z,420
2018-05-01T10:35:25.570Z,405
2018-05-01T10:36:26.094Z,350
2018-05-01T10:37:25.853Z,370
2018-05-01T10:38:26.019Z,345
2018-05-01T10:39:26.209Z,300
2018-05-01T10:40:26.174Z,325
2018-05-01T10:41:25.953Z,370
2018-05-01T10:42:25.949Z,370
2018-05-01T10:43:25.968Z,340
2018-05-01T10:44:25.987Z,325
2018-05-01T10:45:26.304Z,320
2018-05-01T10:46:26.086Z,320
2018-05-01T10:47:26.083Z,310
2018-05-01T10:48:26.125Z,295
2018-05-01T10:49:26.722Z,285
2018-05-01T10:50:25.904Z,275
2018-05-01T10:51:26.417Z,260
2018-05-01T10:52:26.440Z,270
2018-05-01T10:53:25.710Z,265
2018-05-01T10:54:26.309Z,245
2018-05-01T10:55:26.542Z,230
2018-05-01T10:56:26.313Z,235
2018-05-01T10:57:26.325Z,240
2018-05-01T10:58:26.348Z,250
2018-05-01T10:59:26.632Z,270
2018-05-01T11:00:26.405Z,270
2018-05-01T11:01:26.413Z,285
2018-05-01T11:02:26.442Z,285
2018-05-01T11:03:26.478Z,300
2018-05-01T11:04:25.982Z,310
2018-05-01T11:05:26.265Z,315
2018-05-01T11:06:26.539Z,330
2018-05-01T11:07:26.550Z,320
2018-05-01T11:08:26.721Z,310
2018-05-01T11:09:26.671Z,325
2018-05-01T11:10:26.642Z,335
2018-05-01T11:11:26.664Z,325
2018-05-01T11:12:26.934Z,340
2018-05-01T11:13:26.704Z,350
2018-05-01T11:14:26.739Z,365
2018-05-01T11:15:26.754Z,390
2018-05-01T11:16:27.043Z,395
2018-05-01T11:17:27.250Z,380
2018-05-01T11:18:26.822Z,360
2018-05-01T11:19:26.578Z,345
2018-05-01T11:20:26.610Z,345
2018-05-01T11:21:26.888Z,350
2018-05-01T11:22:26.660Z,355
2018-05-01T11:23:27.277Z,390
2018-05-01T11:24:27.027Z,425
2018-05-01T11:25:26.723Z,435
2018-05-01T11:26:27.208Z,460
2018-05-01T11:27:27.278Z,490
2018-05-01T11:28:27.330Z,520
2018-05-01T11:29:26.829Z,555
2018-05-01T11:30:27.374Z,595
2018-05-01T11:31:26.879Z,625
2018-05-01T11:32:27.440Z,675
2018-05-01T11:33:27.183Z,700
2018-05-01T11:34:26.957Z,825
2018-05-01T11:35:27.234Z,830
2018-05-01T11:36:27.499Z,1075
2018-05-01T11:37:27.540Z,735
2018-05-01T11:38:27.282Z,1020
2018-05-01T11:39:26.879Z,1010
2018-05-01T11:40:26.862Z,1030
2018-05-01T11:41:27.649Z,980
2018-05-01T11:42:27.415Z,1005
2018-05-01T11:43:27.442Z,1050
2018-05-01T11:44:27.465Z,1030
2018-05-01T11:45:27.764Z,1005
2018-05-01T11:46:27.799Z,1005
2018-05-01T11:47:27.567Z,985
2018-05-01T11:48:27.832Z,960
2018-05-01T11:49:27.610Z,860
2018-05-01T11:50:27.386Z,885
2018-05-01T11:51:27.923Z,1035
2018-05-01T11:52:27.696Z,595
2018-05-01T11:53:27.540Z,885
2018-05-01T11:54:28.064Z,875
2018-05-01T11:55:27.280Z,890
2018-05-01T11:56:28.092Z,915
2018-05-01T11:57:27.851Z,940
2018-05-01T11:58:27.886Z,960
2018-05-01T11:59:28.099Z,995
2018-05-01T12:00:28.196Z,1025
2018-05-01T12:01:27.973Z,1050
2018-05-01T12:02:28.018Z,1075
2018-05-01T12:03:27.766Z,1075
2018-05-01T12:04:28.248Z,1170
2018-05-01T12:05:28.360Z,1265
2018-05-01T12:06:28.383Z,1290
2018-05-01T12:07:28.413Z,1285
2018-05-01T12:08:28.437Z,1270
2018-05-01T12:09:28.778Z,1275
2018-05-01T12:10:28.294Z,1290
2018-05-01T12:11:28.281Z,1335
2018-05-01T12:12:28.576Z,1490
2018-05-01T12:13:28.694Z,1630
2018-05-01T12:14:28.133Z,1700
2018-05-01T12:15:28.160Z,1820
2018-05-01T12:16:28.444Z,1925
2018-05-01T12:17:28.732Z,1915
2018-05-01T12:18:28.510Z,1685
2018-05-01T12:19:28.553Z,1685
2018-05-01T12:20:28.832Z,1790
2018-05-01T12:21:28.340Z,1920
2018-05-01T12:22:28.390Z,1975
2018-05-01T12:23:28.667Z,1985
2018-05-01T12:24:28.749Z,1890
2018-05-01T12:25:28.489Z,1895
2018-05-01T12:26:29.112Z,2000
2018-05-01T12:27:28.559Z,1895
2018-05-01T12:28:28.832Z,1850
2018-05-01T12:29:29.115Z,1765
2018-05-01T12:30:28.891Z,1960
2018-05-01T12:31:28.426Z,2080
2018-05-01T12:32:28.706Z,2070
2018-05-01T12:33:28.489Z,2045
2018-05-01T12:34:29.092Z,2015
2018-05-01T12:35:29.063Z,2035
2018-05-01T12:36:29.745Z,2050
2018-05-01T12:37:29.146Z,700
2018-05-01T12:38:29.412Z,1015
2018-05-01T12:39:29.260Z,930
2018-05-01T12:40:29.247Z,1370
2018-05-01T12:41:29.261Z,2015
2018-05-01T12:42:29.194Z,2075
2018-05-01T12:43:29.640Z,2020
2018-05-01T12:44:30.320Z,1945
2018-05-01T12:45:29.141Z,1870
2018-05-01T12:46:29.424Z,875
2018-05-01T12:47:29.457Z,2390
2018-05-01T12:48:30.247Z,750
2018-05-01T12:49:29.521Z,715
2018-05-01T12:50:29.308Z,710
2018-05-01T12:51:29.336Z,695
2018-05-01T12:52:29.866Z,700
2018-05-01T12:53:29.664Z,750
2018-05-01T12:54:30.147Z,740
2018-05-01T12:55:29.465Z,1145
2018-05-01T12:56:29.498Z,915
2018-05-01T12:57:30.043Z,720
2018-05-01T12:58:30.077Z,540
2018-05-01T12:59:29.853Z,625
2018-05-01T13:00:30.143Z,580
2018-05-01T13:01:29.670Z,710
2018-05-01T13:02:29.708Z,735
2018-05-01T13:03:29.990Z,635
2018-05-01T13:04:30.014Z,770
2018-05-01T13:05:29.798Z,735
2018-05-01T13:06:30.044Z,805
2018-05-01T13:07:30.345Z,845
2018-05-01T13:08:30.106Z,905
2018-05-01T13:09:30.462Z,550
2018-05-01T13:10:30.429Z,470
2018-05-01T13:11:30.453Z,495
2018-05-01T13:12:29.855Z,475
2018-05-01T13:13:30.564Z,550
2018-05-01T13:14:30.047Z,615
2018-05-01T13:15:30.319Z,665
2018-05-01T13:16:30.353Z,1690
2018-05-01T13:17:30.647Z,1515
2018-05-01T13:18:30.677Z,940
2018-05-01T13:19:30.728Z,980
2018-05-01T13:20:30.800Z,855
2018-05-01T13:21:30.770Z,710
2018-05-01T13:22:30.781Z,925
2018-05-01T13:23:30.812Z,1340
2018-05-01T13:24:30.635Z,1635
2018-05-01T13:25:30.876Z,1855
2018-05-01T13:26:30.914Z,1875
2018-05-01T13:27:31.183Z,1470
2018-05-01T13:28:30.204Z,1365
2018-05-01T13:29:30.235Z,1615
2018-05-01T13:30:30.776Z,1250
2018-05-01T13:31:30.907Z,1035
2018-05-01T13:32:31.034Z,705
2018-05-01T13:33:31.125Z,600
2018-05-01T13:34:30.867Z,600
2018-05-01T13:35:30.901Z,590
2018-05-01T13:36:31.046Z,605
2018-05-01T13:37:30.962Z,615
2018-05-01T13:38:30.988Z,655
2018-05-01T13:39:30.265Z,680
2018-05-01T13:40:31.054Z,710
2018-05-01T13:41:31.385Z,780
2018-05-01T13:42:31.110Z,835
2018-05-01T13:43:31.140Z,1025
2018-05-01T13:44:30.674Z,805
2018-05-01T13:45:31.328Z,785
2018-05-01T13:46:30.991Z,1060
2018-05-01T13:47:31.534Z,1090
2018-05-01T13:48:31.305Z,1280
2018-05-01T13:49:31.602Z,630
2018-05-01T13:50:31.157Z,595
2018-05-01T13:51:31.673Z,630
2018-05-01T13:52:31.675Z,685
2018-05-01T13:53:31.208Z,745
2018-05-01T13:54:31.779Z,745
2018-05-01T13:55:31.426Z,855
2018-05-01T13:56:31.853Z,1640
2018-05-01T13:57:31.827Z,1450
2018-05-01T13:58:31.854Z,1655
2018-05-01T13:59:31.368Z,2025
2018-05-01T14:00:31.687Z,1185
2018-05-01T14:01:31.948Z,1075
2018-05-01T14:02:31.690Z,985
2018-05-01T14:03:32.001Z,1000
2018-05-01T14:04:31.984Z,900